Time,TemperatureF,DewpointF,PressureIn,WindDirection,WindDirectionDegrees,WindSpeedMPH,WindSpeedGustMPH,Humidity,HourlyPrecipIn,Conditions,Clouds,dailyrainin,SoftwareType,DateUTC
2013-12-06 00:02:00,12.0,4.0,-100.00,WNW,296,11.0,21.0,69,0.00,,,-99.99,,2013-12-06 06:02:00,
2013-12-06 00:12:00,12.0,4.0,-100.00,WNW,296,11.0,21.0,69,0.00,,,-99.99,,2013-12-06 06:12:00,
2013-12-06 00:22:00,12.0,4.0,-100.00,WNW,296,11.0,21.0,69,0.00,,,-99.99,,2013-12-06 06:22:00,
2013-12-06 00:52:00,12.0,4.0,-100.00,WNW,302,12.0,17.0,71,0.00,,,-99.99,,2013-12-06 06:52:00,
2013-12-06 01:02:00,12.0,4.0,-100.00,WNW,302,12.0,17.0,71,0.00,,,-99.99,,2013-12-06 07:02:00,
2013-12-06 01:11:00,12.0,4.0,-100.00,WNW,302,12.0,17.0,71,0.00,,,-99.99,,2013-12-06 07:11:00,
2013-12-06 01:22:00,12.0,4.0,-100.00,WNW,302,12.0,17.0,71,0.00,,,-99.99,,2013-12-06 07:22:00,
2013-12-06 01:52:00,10.0,2.0,-100.00,NW,308,14.0,20.0,69,0.00,,,-99.99,,2013-12-06 07:52:00,
2013-12-06 02:02:00,10.0,2.0,-100.00,NW,308,14.0,20.0,69,0.00,,,-99.99,,2013-12-06 08:02:00,
2013-12-06 02:12:00,10.0,2.0,-100.00,NW,308,14.0,20.0,69,0.00,,,-99.99,,2013-12-06 08:12:00,
2013-12-06 02:22:00,10.0,2.0,-100.00,NW,308,14.0,20.0,69,0.00,,,-99.99,,2013-12-06 08:22:00,
2013-12-06 02:52:00,9.0,2.0,-100.00,NW,308,10.0,19.0,74,0.00,,,-99.99,,2013-12-06 08:52:00,
2013-12-06 03:02:00,9.0,2.0,-100.00,NW,308,10.0,19.0,74,0.00,,,-99.99,,2013-12-06 09:02:00,
2013-12-06 03:12:00,9.0,2.0,-100.00,NW,308,10.0,19.0,74,0.00,,,-99.99,,2013-12-06 09:12:00,
2013-12-06 03:22:00,9.0,2.0,-100.00,NW,308,10.0,19.0,74,0.00,,,-99.99,,2013-12-06 09:22:00,
2013-12-06 03:54:00,8.0,1.0,-100.00,WNW,301,12.0,18.0,73,0.00,,,-99.99,,2013-12-06 09:54:00,
2013-12-06 04:03:00,8.0,1.0,-100.00,WNW,301,12.0,18.0,73,0.00,,,-99.99,,2013-12-06 10:03:00,
2013-12-06 04:13:00,8.0,1.0,-100.00,WNW,301,12.0,18.0,73,0.00,,,-99.99,,2013-12-06 10:13:00,
2013-12-06 04:23:00,8.0,1.0,-100.00,WNW,301,12.0,18.0,73,0.00,,,-99.99,,2013-12-06 10:23:00,
2013-12-06 04:52:00,7.0,1.0,-100.00,NW,305,11.0,17.0,75,0.00,,,-99.99,,2013-12-06 10:52:00,
2013-12-06 05:02:00,7.0,1.0,-100.00,NW,305,11.0,17.0,75,0.00,,,-99.99,,2013-12-06 11:02:00,
2013-12-06 05:12:00,7.0,1.0,-100.00,NW,305,11.0,17.0,75,0.00,,,-99.99,,2013-12-06 11:12:00,
2013-12-06 05:22:00,7.0,1.0,-100.00,NW,305,11.0,17.0,75,0.00,,,-99.99,,2013-12-06 11:22:00,
2013-12-06 05:54:00,6.0,0.0,-100.00,WNW,302,10.0,17.0,75,0.00,,,-99.99,,2013-12-06 11:54:00,
2013-12-06 06:02:00,6.0,0.0,-100.00,WNW,302,10.0,17.0,75,0.00,,,-99.99,,2013-12-06 12:02:00,
2013-12-06 06:12:00,6.0,0.0,-100.00,WNW,302,10.0,17.0,75,0.00,,,-99.99,,2013-12-06 12:12:00,
2013-12-06 06:21:00,6.0,0.0,-100.00,WNW,302,10.0,17.0,75,0.00,,,-99.99,,2013-12-06 12:21:00,
2013-12-06 06:52:00,6.0,0.0,-100.00,WNW,295,9.0,15.0,77,0.00,,,-99.99,,2013-12-06 12:52:00,
2013-12-06 07:02:00,6.0,0.0,-100.00,WNW,295,9.0,15.0,77,0.00,,,-99.99,,2013-12-06 13:02:00,
2013-12-06 07:11:00,6.0,0.0,-100.00,WNW,295,9.0,15.0,77,0.00,,,-99.99,,2013-12-06 13:11:00,
2013-12-06 07:22:00,6.0,0.0,-100.00,WNW,295,9.0,15.0,77,0.00,,,-99.99,,2013-12-06 13:22:00,
2013-12-06 07:52:00,5.0,-1.0,-100.00,NW,310,9.0,16.0,75,0.00,,,-99.99,,2013-12-06 13:52:00,
2013-12-06 08:02:00,5.0,-1.0,-100.00,NW,310,9.0,16.0,75,0.00,,,-99.99,,2013-12-06 14:02:00,
2013-12-06 08:11:00,5.0,-1.0,-100.00,NW,310,9.0,16.0,75,0.00,,,-99.99,,2013-12-06 14:11:00,
2013-12-06 08:22:00,5.0,-1.0,-100.00,NW,310,9.0,16.0,75,0.00,,,-99.99,,2013-12-06 14:22:00,
2013-12-06 08:53:00,6.0,-1.0,-100.00,NW,312,9.0,17.0,73,0.00,,,-99.99,,2013-12-06 14:53:00,
2013-12-06 09:02:00,6.0,-1.0,-100.00,NW,312,9.0,17.0,73,0.00,,,-99.99,,2013-12-06 15:02:00,
2013-12-06 09:12:00,6.0,-1.0,-100.00,NW,312,9.0,17.0,73,0.00,,,-99.99,,2013-12-06 15:12:00,
2013-12-06 09:22:00,6.0,-1.0,-100.00,NW,312,9.0,17.0,73,0.00,,,-99.99,,2013-12-06 15:22:00,
2013-12-06 09:54:00,7.0,-1.0,-100.00,NW,321,10.0,19.0,68,0.00,,,-99.99,,2013-12-06 15:54:00,
2013-12-06 10:03:00,7.0,-1.0,-100.00,NW,321,10.0,19.0,68,0.00,,,-99.99,,2013-12-06 16:03:00,
2013-12-06 10:13:00,7.0,-1.0,-100.00,NW,321,10.0,19.0,68,0.00,,,-99.99,,2013-12-06 16:13:00,
2013-12-06 10:24:00,7.0,-1.0,-100.00,NW,321,10.0,19.0,68,0.00,,,-99.99,,2013-12-06 16:24:00,
2013-12-06 10:53:00,10.0,0.0,-100.00,WNW,294,8.0,14.0,64,0.00,,,0.00,,2013-12-06 16:53:00,
2013-12-06 11:02:00,10.0,0.0,-100.00,WNW,294,8.0,14.0,64,0.00,,,0.00,,2013-12-06 17:02:00,
2013-12-06 11:12:00,10.0,0.0,-100.00,WNW,294,8.0,14.0,64,0.00,,,0.00,,2013-12-06 17:12:00,
2013-12-06 11:22:00,10.0,0.0,-100.00,WNW,294,8.0,14.0,64,0.00,,,0.00,,2013-12-06 17:22:00,
2013-12-06 11:52:00,11.0,0.0,-100.00,WNW,295,9.0,16.0,61,0.00,,,0.00,,2013-12-06 17:52:00,
2013-12-06 12:02:00,11.0,0.0,-100.00,WNW,295,9.0,16.0,61,0.00,,,0.00,,2013-12-06 18:02:00,
2013-12-06 12:12:00,11.0,0.0,-100.00,WNW,295,9.0,16.0,61,0.00,,,0.00,,2013-12-06 18:12:00,
2013-12-06 12:22:00,11.0,0.0,-100.00,WNW,295,9.0,16.0,61,0.00,,,0.00,,2013-12-06 18:22:00,
2013-12-06 12:52:00,13.0,0.0,-100.00,NW,314,11.0,22.0,56,0.00,,,0.00,,2013-12-06 18:52:00,
2013-12-06 13:02:00,13.0,0.0,-100.00,NW,314,11.0,22.0,56,0.00,,,0.00,,2013-12-06 19:02:00,
2013-12-06 13:11:00,13.0,0.0,-100.00,NW,314,11.0,22.0,56,0.00,,,0.00,,2013-12-06 19:11:00,
2013-12-06 13:21:00,13.0,0.0,-100.00,NW,314,11.0,22.0,56,0.00,,,0.00,,2013-12-06 19:21:00,
2013-12-06 13:52:00,15.0,1.0,-100.00,NW,316,10.0,17.0,54,0.00,,,0.00,,2013-12-06 19:52:00,
2013-12-06 14:02:00,15.0,1.0,-100.00,NW,316,10.0,17.0,54,0.00,,,0.00,,2013-12-06 20:02:00,
2013-12-06 14:11:00,15.0,1.0,-100.00,NW,316,10.0,17.0,54,0.00,,,0.00,,2013-12-06 20:11:00,
2013-12-06 14:22:00,15.0,1.0,-100.00,NW,316,10.0,17.0,54,0.00,,,0.00,,2013-12-06 20:22:00,
2013-12-06 14:52:00,15.0,0.0,-100.00,NW,318,9.0,20.0,51,0.00,,,0.00,,2013-12-06 20:52:00,
2013-12-06 15:02:00,15.0,0.0,-100.00,NW,318,9.0,20.0,51,0.00,,,0.00,,2013-12-06 21:02:00,
2013-12-06 15:11:00,15.0,0.0,-100.00,NW,318,9.0,20.0,51,0.00,,,0.00,,2013-12-06 21:11:00,
2013-12-06 15:22:00,15.0,0.0,-100.00,NW,318,9.0,20.0,51,0.00,,,0.00,,2013-12-06 21:22:00,
2013-12-06 15:54:00,14.0,0.0,-100.00,WNW,303,10.0,15.0,52,0.00,,,0.00,,2013-12-06 21:54:00,
2013-12-06 16:03:00,14.0,0.0,-100.00,WNW,303,10.0,15.0,52,0.00,,,0.00,,2013-12-06 22:03:00,
2013-12-06 16:13:00,14.0,0.0,-100.00,WNW,303,10.0,15.0,52,0.00,,,0.00,,2013-12-06 22:13:00,
2013-12-06 16:23:00,14.0,0.0,-100.00,WNW,303,10.0,15.0,52,0.00,,,0.00,,2013-12-06 22:23:00,
2013-12-06 16:53:00,12.0,0.0,-100.00,WNW,299,9.0,15.0,58,0.00,,,0.00,,2013-12-06 22:53:00,
2013-12-06 17:02:00,12.0,0.0,-100.00,WNW,299,9.0,15.0,58,0.00,,,0.00,,2013-12-06 23:02:00,
2013-12-06 17:12:00,12.0,0.0,-100.00,WNW,299,9.0,15.0,58,0.00,,,0.00,,2013-12-06 23:12:00,
2013-12-06 17:22:00,12.0,0.0,-100.00,WNW,299,9.0,15.0,58,0.00,,,0.00,,2013-12-06 23:22:00,
2013-12-06 17:52:00,11.0,1.0,-100.00,NW,310,8.0,16.0,62,0.00,,,0.00,,2013-12-06 23:52:00,
2013-12-06 18:02:00,11.0,1.0,-100.00,NW,310,8.0,16.0,62,0.00,,,0.00,,2013-12-07 00:02:00,
2013-12-06 18:11:00,11.0,1.0,-100.00,NW,310,8.0,16.0,62,0.00,,,0.00,,2013-12-07 00:11:00,
2013-12-06 18:22:00,11.0,1.0,-100.00,NW,310,8.0,16.0,62,0.00,,,0.00,,2013-12-07 00:22:00,
2013-12-06 18:52:00,10.0,0.0,-100.00,NW,313,10.0,14.0,63,0.00,,,0.00,,2013-12-07 00:52:00,
2013-12-06 19:02:00,10.0,0.0,-100.00,NW,313,10.0,14.0,63,0.00,,,0.00,,2013-12-07 01:02:00,
2013-12-06 19:11:00,10.0,0.0,-100.00,NW,313,10.0,14.0,63,0.00,,,0.00,,2013-12-07 01:11:00,
2013-12-06 19:22:00,10.0,0.0,-100.00,NW,313,10.0,14.0,63,0.00,,,0.00,,2013-12-07 01:22:00,
2013-12-06 19:52:00,9.0,0.0,-100.00,NW,316,9.0,16.0,65,0.00,,,0.00,,2013-12-07 01:52:00,
2013-12-06 20:01:00,9.0,0.0,-100.00,NW,316,9.0,16.0,65,0.00,,,0.00,,2013-12-07 02:01:00,
2013-12-06 20:11:00,9.0,0.0,-100.00,NW,316,9.0,16.0,65,0.00,,,0.00,,2013-12-07 02:11:00,
2013-12-06 20:21:00,9.0,0.0,-100.00,NW,316,9.0,16.0,65,0.00,,,0.00,,2013-12-07 02:21:00,
2013-12-06 20:52:00,8.0,-1.0,-100.00,NW,311,9.0,16.0,66,0.00,,,0.00,,2013-12-07 02:52:00,
2013-12-06 21:02:00,8.0,-1.0,-100.00,NW,311,9.0,16.0,66,0.00,,,0.00,,2013-12-07 03:02:00,
2013-12-06 21:11:00,8.0,-1.0,-100.00,NW,311,9.0,16.0,66,0.00,,,0.00,,2013-12-07 03:11:00,
2013-12-06 21:22:00,8.0,-1.0,-100.00,NW,311,9.0,16.0,66,0.00,,,0.00,,2013-12-07 03:22:00,
2013-12-06 21:53:00,7.0,-2.0,-100.00,NW,315,10.0,18.0,65,0.00,,,0.00,,2013-12-07 03:53:00,
2013-12-06 22:03:00,7.0,-2.0,-100.00,NW,315,10.0,18.0,65,0.00,,,0.00,,2013-12-07 04:03:00,
2013-12-06 22:12:00,7.0,-2.0,-100.00,NW,315,10.0,18.0,65,0.00,,,0.00,,2013-12-07 04:12:00,
2013-12-06 22:23:00,7.0,-2.0,-100.00,NW,315,10.0,18.0,65,0.00,,,0.00,,2013-12-07 04:23:00,
2013-12-06 22:53:00,7.0,-1.0,-100.00,NW,314,9.0,15.0,70,0.00,,,0.00,,2013-12-07 04:53:00,
2013-12-06 23:03:00,7.0,-1.0,-100.00,NW,314,9.0,15.0,70,0.00,,,0.00,,2013-12-07 05:03:00,
2013-12-06 23:12:00,7.0,-1.0,-100.00,NW,314,9.0,15.0,70,0.00,,,0.00,,2013-12-07 05:12:00,
2013-12-06 23:22:00,7.0,-1.0,-100.00,NW,314,9.0,15.0,70,0.00,,,0.00,,2013-12-07 05:22:00,
2013-12-06 23:53:00,6.0,-1.0,-100.00,NW,324,9.0,14.0,71,0.00,,,-99.99,,2013-12-07 05:53:00,